createdAt,value
2018-06-30T19:09:34.689Z,33.78
2018-06-30T19:12:33.333Z,34.06
2018-06-30T19:18:23.642Z,33.61
2018-06-30T19:21:07.520Z,34.50
2018-06-30T19:23:52.689Z,34.46
2018-06-30T19:26:34.709Z,35.06
2018-06-30T19:29:12.866Z,33.94
2018-06-30T19:32:48.241Z,34.89
2018-06-30T19:40:55.336Z,34.65
2018-06-30T19:49:32.018Z,33.41
2018-06-30T19:52:14.533Z,33.38
2018-06-30T19:54:50.997Z,33.48
2018-06-30T19:57:26.997Z,33.54
2018-06-30T20:25:33.797Z,31.34
2018-06-30T20:28:09.763Z,32.63
2018-06-30T20:30:47.544Z,31.93
2018-06-30T20:33:21.454Z,32.72
2018-06-30T20:35:59.414Z,32.31
2018-06-30T20:38:43.673Z,32.45
2018-06-30T20:41:18.140Z,32.60
2018-06-30T20:44:23.690Z,34.11
2018-06-30T20:47:34.165Z,33.78
2018-06-30T20:50:11.546Z,33.53
2018-06-30T20:52:47.505Z,33.49
2018-06-30T20:55:24.717Z,33.60
2018-06-30T20:57:59.477Z,33.74
2018-06-30T21:00:39.851Z,33.78
2018-06-30T21:03:16.943Z,33.25
2018-06-30T21:05:53.844Z,33.69
2018-06-30T21:08:39.207Z,34.09
2018-06-30T21:18:25.162Z,34.62
2018-06-30T21:21:04.717Z,35.08
2018-06-30T21:26:43.552Z,34.00
2018-06-30T21:29:18.869Z,34.19
2018-06-30T21:31:58.095Z,34.61
2018-06-30T21:34:35.887Z,34.16
2018-06-30T21:37:12.299Z,35.55
2018-06-30T21:39:46.823Z,35.61
2018-06-30T21:42:20.611Z,35.68
2018-06-30T21:44:55.697Z,35.39
2018-06-30T21:47:35.460Z,35.47
2018-06-30T21:50:20.980Z,36.07
2018-06-30T21:52:56.779Z,35.73
2018-06-30T21:55:34.313Z,35.68
2018-06-30T21:58:08.979Z,36.09
2018-06-30T22:01:51.115Z,37.30
2018-06-30T22:04:26.190Z,37.61
2018-06-30T22:06:59.686Z,37.72
2018-06-30T22:09:30.336Z,37.32
2018-06-30T22:12:03.617Z,37.90
2018-06-30T22:14:39.183Z,38.00
2018-06-30T22:17:11.748Z,38.13
2018-06-30T22:19:42.383Z,37.57
2018-06-30T22:22:15.928Z,38.74
2018-06-30T22:24:49.140Z,38.47
2018-06-30T22:27:24.521Z,37.79
2018-06-30T22:29:57.292Z,38.58
2018-06-30T22:32:28.009Z,39.31
2018-06-30T22:35:00.093Z,39.77
2018-06-30T22:37:37.094Z,39.15
2018-06-30T22:40:16.443Z,39.75
2018-06-30T22:42:48.212Z,40.65
